Andrew, Illinois
Current Conditions -  °F | °C
As of 4:52 AM on Thursday 23 Oct 2014 (Local Time) from KSPI Reporting Station
Clear Clear  
Wind Chill:   Ceiling: Unl
Heat Index:   Visibility: 10mi
Dew Point:   Wind: 5mph
Humidity: 82%   Direction: 160°SSE
Pressure: 30.21"   Gusts: NA
Location:  39.854°N, 89.6295°W
Report Text: KSPI 230952Z AUTO 16004KT 10SM CLR 05/02 A3021 RMK AO2 SLP230 T00500022
Loading
Personal Weather Stations






























Interactive Weather Map
Tropical Storm Tracking
New forecast layout! Learn more

10-Day Weather Forecast

Advertisements
Track Severe Weather on mobile